createdAt,value
2023-03-25T00:00:14.303Z,9.19
2023-03-25T00:01:18.550Z,9.18
2023-03-25T00:02:22.853Z,9.17
2023-03-25T00:03:27.086Z,9.17
2023-03-25T00:04:31.296Z,9.15
2023-03-25T00:05:35.545Z,9.15
2023-03-25T00:06:39.792Z,9.15
2023-03-25T00:07:44.032Z,9.14
2023-03-25T00:08:48.347Z,9.13
2023-03-25T00:09:52.555Z,9.13
2023-03-25T00:11:10.889Z,9.12
2023-03-25T00:12:14.202Z,9.12
2023-03-25T00:13:18.330Z,9.11
2023-03-25T00:14:22.624Z,9.11
2023-03-25T00:15:26.828Z,9.11
2023-03-25T00:16:31.094Z,9.10
2023-03-25T00:17:38.464Z,9.10
2023-03-25T00:18:41.684Z,9.09
2023-03-25T00:19:45.923Z,9.09
2023-03-25T00:20:50.140Z,9.09
2023-03-25T00:21:54.398Z,9.08
2023-03-25T00:22:58.639Z,9.08
2023-03-25T00:24:02.937Z,9.07
2023-03-25T00:25:07.247Z,9.07
2023-03-25T00:26:11.402Z,9.07
2023-03-25T00:27:15.641Z,9.07
2023-03-25T00:28:19.866Z,9.06
2023-03-25T00:29:24.177Z,9.06
2023-03-25T00:30:28.505Z,9.05
2023-03-25T00:31:32.693Z,9.05
2023-03-25T00:32:36.909Z,9.04
2023-03-25T00:33:41.166Z,9.04
2023-03-25T00:34:45.351Z,9.04
2023-03-25T00:35:49.983Z,9.04
2023-03-25T00:36:53.891Z,9.04
2023-03-25T00:37:58.064Z,9.04
2023-03-25T00:39:02.286Z,9.03
2023-03-25T00:40:06.563Z,9.03
2023-03-25T00:41:10.758Z,9.03
2023-03-25T00:42:15.068Z,9.02
2023-03-25T00:43:19.264Z,9.01
2023-03-25T00:44:23.520Z,9.00
2023-03-25T00:45:27.784Z,9.00
2023-03-25T00:46:32.195Z,8.99
2023-03-25T00:47:36.264Z,8.98
2023-03-25T00:48:40.455Z,8.97
2023-03-25T00:49:44.704Z,8.96
2023-03-25T00:50:49.059Z,8.96
2023-03-25T00:51:53.945Z,8.95
2023-03-25T00:52:57.418Z,8.95
2023-03-25T00:54:01.618Z,8.95
2023-03-25T00:55:05.968Z,8.94
2023-03-25T00:56:10.272Z,8.94
2023-03-25T00:57:14.520Z,8.94
2023-03-25T00:58:18.753Z,8.93
2023-03-25T00:59:22.963Z,8.93
2023-03-25T01:00:27.200Z,8.93
2023-03-25T01:01:31.481Z,8.93
2023-03-25T01:02:35.805Z,8.92
2023-03-25T01:03:40.080Z,8.92
2023-03-25T01:04:44.265Z,8.91
2023-03-25T01:05:48.709Z,8.91
2023-03-25T01:06:52.724Z,8.90
2023-03-25T01:07:56.967Z,8.89
2023-03-25T01:09:01.226Z,8.89
2023-03-25T01:10:19.482Z,8.89
2023-03-25T01:11:22.681Z,8.89
2023-03-25T01:12:26.840Z,8.90
2023-03-25T01:13:31.137Z,8.91
2023-03-25T01:14:35.374Z,8.92
2023-03-25T01:15:39.561Z,8.93
2023-03-25T01:16:43.873Z,8.94
2023-03-25T01:17:48.092Z,8.95
2023-03-25T01:18:52.258Z,8.96
2023-03-25T01:19:56.476Z,8.97
2023-03-25T01:21:00.706Z,8.99
2023-03-25T01:22:05.012Z,9.00
2023-03-25T01:23:09.237Z,9.01
2023-03-25T01:24:13.459Z,9.02
2023-03-25T01:25:17.764Z,9.04
2023-03-25T01:26:22.052Z,9.05
2023-03-25T01:27:26.236Z,9.06
2023-03-25T01:28:30.513Z,9.07
2023-03-25T01:29:34.777Z,9.08
2023-03-25T01:30:38.982Z,9.10
2023-03-25T01:31:43.335Z,9.10
2023-03-25T01:32:47.490Z,9.11
2023-03-25T01:33:51.693Z,9.12
2023-03-25T01:34:56.014Z,9.13
2023-03-25T01:36:00.261Z,9.14
2023-03-25T01:37:04.432Z,9.15
2023-03-25T01:38:08.653Z,9.16
2023-03-25T01:39:13.021Z,9.16
2023-03-25T01:40:23.203Z,9.17
2023-03-25T01:41:29.213Z,9.17
2023-03-25T01:42:30.257Z,9.18
2023-03-25T01:43:34.520Z,9.18
2023-03-25T01:44:38.733Z,9.19
2023-03-25T01:45:42.994Z,9.19
2023-03-25T01:46:47.293Z,9.20
2023-03-25T01:47:51.382Z,9.21
2023-03-25T01:48:55.687Z,9.21
2023-03-25T01:49:59.897Z,9.21
2023-03-25T01:51:04.098Z,9.22
2023-03-25T01:52:08.411Z,9.22
2023-03-25T01:53:12.640Z,9.22
2023-03-25T01:54:16.873Z,9.23
2023-03-25T01:55:21.073Z,9.23
2023-03-25T01:56:25.313Z,9.23
2023-03-25T01:57:29.625Z,9.23
2023-03-25T01:58:33.938Z,9.22
2023-03-25T01:59:38.223Z,9.22
2023-03-25T02:00:42.376Z,9.21
2023-03-25T02:01:46.703Z,9.21
2023-03-25T02:02:57.038Z,9.20
2023-03-25T02:04:14.068Z,9.19
2023-03-25T02:05:17.120Z,9.19
2023-03-25T02:06:21.268Z,9.19
2023-03-25T02:07:28.600Z,9.19
2023-03-25T02:08:31.856Z,9.18
2023-03-25T02:09:36.087Z,9.18
2023-03-25T02:10:40.341Z,9.18
2023-03-25T02:11:44.561Z,9.17
2023-03-25T02:12:48.766Z,9.17
2023-03-25T02:13:53.041Z,9.17
2023-03-25T02:14:57.273Z,9.16
2023-03-25T02:16:01.657Z,9.16
2023-03-25T02:17:05.792Z,9.15
2023-03-25T02:18:10.015Z,9.14
2023-03-25T02:19:14.263Z,9.14
2023-03-25T02:20:18.495Z,9.14
2023-03-25T02:21:22.705Z,9.14
2023-03-25T02:22:26.948Z,9.14
2023-03-25T02:23:31.216Z,9.13
2023-03-25T02:24:35.563Z,9.13
2023-03-25T02:25:39.748Z,9.13
2023-03-25T02:26:43.937Z,9.12
2023-03-25T02:27:48.148Z,9.12
2023-03-25T02:28:52.405Z,9.11
2023-03-25T02:29:56.707Z,9.11
2023-03-25T02:31:00.941Z,9.11
2023-03-25T02:32:05.268Z,9.10
2023-03-25T02:33:09.474Z,9.11
2023-03-25T02:34:13.763Z,9.11
2023-03-25T02:35:17.967Z,9.11
2023-03-25T02:36:22.203Z,9.11
2023-03-25T02:37:26.470Z,9.11
2023-03-25T02:38:30.687Z,9.11
2023-03-25T02:39:34.906Z,9.11
2023-03-25T02:40:39.149Z,9.11
2023-03-25T02:41:43.374Z,9.11
2023-03-25T02:42:47.560Z,9.11
2023-03-25T02:43:51.791Z,9.11
2023-03-25T02:44:56.019Z,9.11
2023-03-25T02:46:00.312Z,9.10
2023-03-25T02:47:04.557Z,9.10
2023-03-25T02:48:08.772Z,9.10
2023-03-25T02:49:13.089Z,9.10
2023-03-25T02:50:17.263Z,9.10
2023-03-25T02:51:21.627Z,9.10
2023-03-25T02:52:25.888Z,9.10
2023-03-25T02:53:30.077Z,9.10
2023-03-25T02:54:34.383Z,9.10
2023-03-25T02:55:38.584Z,9.11
2023-03-25T02:56:42.874Z,9.11
2023-03-25T02:57:47.085Z,9.11
2023-03-25T02:58:51.258Z,9.11
2023-03-25T02:59:55.552Z,9.11
2023-03-25T03:00:59.847Z,9.12
2023-03-25T03:02:04.128Z,9.12
2023-03-25T03:03:08.402Z,9.12
2023-03-25T03:04:12.707Z,9.12
2023-03-25T03:05:16.829Z,9.12
2023-03-25T03:06:21.097Z,9.12
2023-03-25T03:07:25.396Z,9.12
2023-03-25T03:08:29.614Z,9.12
2023-03-25T03:09:33.940Z,9.12
2023-03-25T03:10:38.234Z,9.12
2023-03-25T03:11:42.440Z,9.12
2023-03-25T03:12:46.681Z,9.12
2023-03-25T03:13:50.907Z,9.12
2023-03-25T03:14:55.223Z,9.12
2023-03-25T03:15:59.393Z,9.12
2023-03-25T03:17:03.800Z,9.12
2023-03-25T03:18:08.016Z,9.12
2023-03-25T03:19:12.033Z,9.12
2023-03-25T03:20:16.399Z,9.12
2023-03-25T03:21:20.573Z,9.12
2023-03-25T03:22:24.831Z,9.12
2023-03-25T03:23:29.114Z,9.12
2023-03-25T03:24:33.421Z,9.12
2023-03-25T03:25:37.614Z,9.12
2023-03-25T03:26:41.893Z,9.11
2023-03-25T03:27:46.084Z,9.11
2023-03-25T03:28:50.387Z,9.12
2023-03-25T03:29:54.597Z,9.12
2023-03-25T03:30:59.719Z,9.12
2023-03-25T03:32:06.143Z,9.13
2023-03-25T03:33:10.915Z,9.13
2023-03-25T03:34:14.127Z,9.13
2023-03-25T03:35:18.464Z,9.13
2023-03-25T03:36:22.547Z,9.13
2023-03-25T03:37:26.902Z,9.14
2023-03-25T03:38:31.216Z,9.14
2023-03-25T03:39:38.451Z,9.14
2023-03-25T03:40:41.832Z,9.14
2023-03-25T03:41:45.976Z,9.14
2023-03-25T03:42:50.206Z,9.14
2023-03-25T03:43:54.432Z,9.15
2023-03-25T03:44:58.860Z,9.15
2023-03-25T03:46:03.064Z,9.16
2023-03-25T03:47:07.373Z,9.16
2023-03-25T03:48:11.614Z,9.16
2023-03-25T03:49:29.963Z,9.17
2023-03-25T03:50:33.193Z,9.17
2023-03-25T03:51:37.317Z,9.17
2023-03-25T03:52:41.533Z,9.17
2023-03-25T03:53:45.857Z,9.18
2023-03-25T03:54:50.044Z,9.18
2023-03-25T03:55:54.338Z,9.18
2023-03-25T03:56:58.596Z,9.18
2023-03-25T03:58:02.773Z,9.18
2023-03-25T03:59:06.999Z,9.18
2023-03-25T04:00:11.239Z,9.18
2023-03-25T04:01:15.516Z,9.19
2023-03-25T04:02:19.755Z,9.19
2023-03-25T04:03:24.053Z,9.19
2023-03-25T04:04:28.242Z,9.19
2023-03-25T04:05:32.463Z,9.19
2023-03-25T04:06:36.840Z,9.19
2023-03-25T04:07:40.980Z,9.19
2023-03-25T04:08:45.211Z,9.19
2023-03-25T04:09:49.367Z,9.18
2023-03-25T04:10:53.816Z,9.17
2023-03-25T04:11:58.003Z,9.17
2023-03-25T04:13:02.306Z,9.17
2023-03-25T04:14:06.471Z,9.17
2023-03-25T04:15:10.676Z,9.18
2023-03-25T04:16:15.004Z,9.19
2023-03-25T04:17:19.276Z,9.19
2023-03-25T04:18:23.536Z,9.20
2023-03-25T04:19:27.711Z,9.21
2023-03-25T04:20:31.990Z,9.21
2023-03-25T04:21:36.187Z,9.21
2023-03-25T04:22:40.559Z,9.22
2023-03-25T04:23:44.746Z,9.22
2023-03-25T04:24:49.071Z,9.22
2023-03-25T04:25:53.681Z,9.22
2023-03-25T04:26:57.569Z,9.22
2023-03-25T04:28:01.805Z,9.22
2023-03-25T04:29:06.037Z,9.22
2023-03-25T04:30:10.243Z,9.23
2023-03-25T04:31:14.543Z,9.23
2023-03-25T04:32:18.722Z,9.23
2023-03-25T04:33:22.983Z,9.23
2023-03-25T04:34:27.243Z,9.23
2023-03-25T04:35:31.471Z,9.24
2023-03-25T04:36:35.686Z,9.24
2023-03-25T04:37:39.950Z,9.24
2023-03-25T04:38:44.293Z,9.24
2023-03-25T04:39:48.415Z,9.24
2023-03-25T04:40:52.792Z,9.24
2023-03-25T04:41:57.064Z,9.24
2023-03-25T04:43:01.270Z,9.24
2023-03-25T04:44:05.520Z,9.24
2023-03-25T04:45:09.897Z,9.24
2023-03-25T04:46:14.125Z,9.24
2023-03-25T04:47:18.336Z,9.24
2023-03-25T04:48:22.519Z,9.24
2023-03-25T04:49:26.770Z,9.24
2023-03-25T04:50:31.110Z,9.24
2023-03-25T04:51:38.305Z,9.23
2023-03-25T04:52:41.607Z,9.23
2023-03-25T04:53:45.926Z,9.24
2023-03-25T04:54:50.135Z,9.24
2023-03-25T04:55:54.357Z,9.24
2023-03-25T04:56:58.594Z,9.24
2023-03-25T04:58:02.680Z,9.24
2023-03-25T04:59:06.992Z,9.25
2023-03-25T05:00:11.347Z,9.24
2023-03-25T05:01:15.652Z,9.24
2023-03-25T05:02:19.800Z,9.25
2023-03-25T05:03:24.018Z,9.25
2023-03-25T05:04:28.349Z,9.26
2023-03-25T05:05:32.498Z,9.26
2023-03-25T05:06:36.740Z,9.26
2023-03-25T05:07:41.086Z,9.27
2023-03-25T05:08:45.279Z,9.27
2023-03-25T05:09:49.550Z,9.28
2023-03-25T05:10:53.852Z,9.28
2023-03-25T05:11:57.896Z,9.30
2023-03-25T05:13:02.206Z,9.30
2023-03-25T05:14:06.445Z,9.30
2023-03-25T05:15:10.729Z,9.31
2023-03-25T05:16:15.058Z,9.32
2023-03-25T05:17:19.164Z,9.33
2023-03-25T05:18:23.444Z,9.33
2023-03-25T05:19:27.743Z,9.34
2023-03-25T05:20:31.923Z,9.34
2023-03-25T05:21:36.271Z,9.35
2023-03-25T05:22:43.410Z,9.36
2023-03-25T05:23:46.748Z,9.37
2023-03-25T05:24:50.930Z,9.38
2023-03-25T05:25:55.188Z,9.39
2023-03-25T05:26:59.442Z,9.40
2023-03-25T05:28:03.629Z,9.41
2023-03-25T05:29:07.948Z,9.42
2023-03-25T05:30:12.182Z,9.43
2023-03-25T05:31:16.428Z,9.44
2023-03-25T05:32:20.659Z,9.45
2023-03-25T05:33:24.904Z,9.46
2023-03-25T05:34:29.136Z,9.46
2023-03-25T05:35:33.332Z,9.47
2023-03-25T05:36:37.611Z,9.47
2023-03-25T05:37:41.840Z,9.47
2023-03-25T05:38:46.112Z,9.47
2023-03-25T05:39:50.350Z,9.48
2023-03-25T05:41:00.659Z,9.48
2023-03-25T05:42:03.509Z,9.48
2023-03-25T05:43:07.684Z,9.48
2023-03-25T05:44:11.957Z,9.48
2023-03-25T05:45:16.169Z,9.48
2023-03-25T05:46:20.478Z,9.49
2023-03-25T05:47:24.692Z,9.49
2023-03-25T05:48:28.949Z,9.49
2023-03-25T05:49:33.211Z,9.49
2023-03-25T05:50:37.452Z,9.50
2023-03-25T05:51:41.692Z,9.50
2023-03-25T05:52:45.942Z,9.50
2023-03-25T05:53:50.182Z,9.50
2023-03-25T05:54:57.397Z,9.50
2023-03-25T05:56:00.868Z,9.51
2023-03-25T05:57:05.013Z,9.51
2023-03-25T05:58:09.264Z,9.50
2023-03-25T05:59:13.472Z,9.50
2023-03-25T06:00:17.731Z,9.50
2023-03-25T06:01:32.751Z,9.51
2023-03-25T06:02:26.429Z,9.51
2023-03-25T06:03:30.716Z,9.52
2023-03-25T06:04:34.829Z,9.53
2023-03-25T06:05:39.156Z,9.53
2023-03-25T06:06:43.337Z,9.53
2023-03-25T06:07:47.679Z,9.54
2023-03-25T06:08:51.796Z,9.56
2023-03-25T06:09:56.040Z,9.57
2023-03-25T06:11:00.367Z,9.59
2023-03-25T06:12:04.597Z,9.61
2023-03-25T06:13:09.005Z,9.63
2023-03-25T06:14:13.247Z,9.65
2023-03-25T06:15:17.445Z,9.66
2023-03-25T06:16:21.783Z,9.67
2023-03-25T06:17:26.061Z,9.67
2023-03-25T06:18:30.255Z,9.68
2023-03-25T06:19:34.504Z,9.69
2023-03-25T06:20:38.810Z,9.69
2023-03-25T06:21:43.012Z,9.70
2023-03-25T06:22:47.250Z,9.70
2023-03-25T06:23:51.544Z,9.71
2023-03-25T06:24:55.849Z,9.71
2023-03-25T06:26:00.131Z,9.71
2023-03-25T06:27:04.379Z,9.72
2023-03-25T06:28:08.624Z,9.72
2023-03-25T06:29:12.837Z,9.72
2023-03-25T06:30:17.130Z,9.73
2023-03-25T06:31:21.354Z,9.72
2023-03-25T06:32:25.703Z,9.73
2023-03-25T06:33:42.992Z,9.73
2023-03-25T06:34:34.111Z,9.73
2023-03-25T06:35:38.372Z,9.74
2023-03-25T06:36:42.580Z,9.75
2023-03-25T06:37:46.877Z,9.75
2023-03-25T06:38:51.162Z,9.76
2023-03-25T06:39:55.372Z,9.77
2023-03-25T06:40:59.602Z,9.78
2023-03-25T06:42:03.901Z,9.79
2023-03-25T06:43:08.201Z,9.80
2023-03-25T06:44:12.397Z,9.81
2023-03-25T06:45:16.662Z,9.83
2023-03-25T06:46:21.041Z,9.84
2023-03-25T06:47:25.382Z,9.85
2023-03-25T06:48:29.517Z,9.86
2023-03-25T06:49:33.777Z,9.87
2023-03-25T06:50:37.978Z,9.89
2023-03-25T06:51:42.263Z,9.91
2023-03-25T06:52:46.522Z,9.93
2023-03-25T06:53:50.909Z,9.96
2023-03-25T06:54:55.147Z,10.00
2023-03-25T06:55:59.404Z,10.03
2023-03-25T06:57:03.792Z,10.07
2023-03-25T06:58:07.943Z,10.11
2023-03-25T06:59:12.170Z,10.15
2023-03-25T07:00:16.522Z,10.19
2023-03-25T07:01:20.794Z,10.22
2023-03-25T07:02:25.012Z,10.26
2023-03-25T07:03:29.356Z,10.30
2023-03-25T07:04:33.523Z,10.32
2023-03-25T07:05:37.836Z,10.33
2023-03-25T07:06:42.138Z,10.35
2023-03-25T07:07:46.356Z,10.36
2023-03-25T07:08:50.590Z,10.36
2023-03-25T07:09:54.820Z,10.37
2023-03-25T07:10:59.144Z,10.37
2023-03-25T07:12:03.313Z,10.39
2023-03-25T07:13:07.579Z,10.42
2023-03-25T07:14:11.830Z,10.46
2023-03-25T07:15:16.093Z,10.49
2023-03-25T07:16:20.384Z,10.53
2023-03-25T07:17:24.642Z,10.58
2023-03-25T07:18:28.945Z,10.63
2023-03-25T07:19:33.130Z,10.68
2023-03-25T07:20:37.362Z,10.73
2023-03-25T07:21:41.655Z,10.78
2023-03-25T07:22:45.896Z,10.83
2023-03-25T07:24:04.296Z,10.86
2023-03-25T07:25:07.472Z,10.89
2023-03-25T07:26:11.708Z,10.91
2023-03-25T07:27:16.067Z,10.93
2023-03-25T07:28:20.268Z,10.95
2023-03-25T07:29:24.503Z,10.95
2023-03-25T07:30:28.802Z,10.95
2023-03-25T07:31:33.044Z,10.94
2023-03-25T07:32:37.263Z,10.94
2023-03-25T07:33:41.535Z,10.93
2023-03-25T07:34:45.817Z,10.93
2023-03-25T07:35:50.421Z,10.94
2023-03-25T07:36:54.445Z,10.95
2023-03-25T07:37:58.696Z,10.97
2023-03-25T07:39:02.989Z,11.00
2023-03-25T07:40:07.327Z,11.01
2023-03-25T07:41:11.646Z,11.02
2023-03-25T07:42:15.881Z,11.01
2023-03-25T07:43:20.125Z,11.01
2023-03-25T07:44:24.411Z,11.01
2023-03-25T07:45:28.711Z,10.99
2023-03-25T07:46:33.101Z,10.98
2023-03-25T07:47:37.160Z,10.97
2023-03-25T07:48:41.566Z,10.96
2023-03-25T07:49:45.802Z,10.95
2023-03-25T07:50:50.156Z,10.94
2023-03-25T07:51:54.369Z,10.94
2023-03-25T07:52:58.613Z,10.94
2023-03-25T07:54:05.441Z,10.93
2023-03-25T07:55:07.197Z,10.92
2023-03-25T07:56:11.556Z,10.91
2023-03-25T07:57:15.785Z,10.92
2023-03-25T07:58:20.016Z,10.91
2023-03-25T07:59:24.381Z,10.91
2023-03-25T08:00:28.744Z,10.91
2023-03-25T08:01:32.941Z,10.91
2023-03-25T08:02:37.220Z,10.90
2023-03-25T08:03:41.535Z,10.90
2023-03-25T08:04:45.831Z,10.89
2023-03-25T08:05:50.412Z,10.89
2023-03-25T08:06:54.307Z,10.89
2023-03-25T08:07:58.595Z,10.89
2023-03-25T08:09:02.838Z,10.89
2023-03-25T08:10:07.095Z,10.89
2023-03-25T08:11:11.375Z,10.88
2023-03-25T08:12:15.601Z,10.87
2023-03-25T08:13:19.893Z,10.85
2023-03-25T08:14:24.143Z,10.84
2023-03-25T08:15:28.392Z,10.83
2023-03-25T08:16:32.707Z,10.83
2023-03-25T08:17:37.013Z,10.81
2023-03-25T08:18:41.177Z,10.80
2023-03-25T08:19:45.412Z,10.80
2023-03-25T08:20:49.830Z,10.79
2023-03-25T08:21:53.963Z,10.79
2023-03-25T08:22:58.524Z,10.78
2023-03-25T08:24:02.553Z,10.78
2023-03-25T08:25:06.857Z,10.77
2023-03-25T08:26:25.168Z,10.77
2023-03-25T08:27:28.239Z,10.76
2023-03-25T08:28:32.582Z,10.77
2023-03-25T08:29:36.725Z,10.77
2023-03-25T08:30:41.069Z,10.78
2023-03-25T08:31:45.277Z,10.78
2023-03-25T08:32:49.636Z,10.77
2023-03-25T08:33:53.847Z,10.77
2023-03-25T08:34:58.133Z,10.77
2023-03-25T08:36:02.553Z,10.78
2023-03-25T08:37:06.703Z,10.79
2023-03-25T08:38:11.089Z,10.80
2023-03-25T08:39:15.325Z,10.81
2023-03-25T08:40:19.571Z,10.84
2023-03-25T08:41:23.858Z,10.88
2023-03-25T08:42:28.098Z,10.91
2023-03-25T08:43:32.460Z,10.94
2023-03-25T08:44:36.672Z,10.98
2023-03-25T08:45:40.962Z,11.01
2023-03-25T08:46:45.231Z,11.05
2023-03-25T08:47:49.471Z,11.10
2023-03-25T08:48:53.775Z,11.15
2023-03-25T08:49:58.098Z,11.20
2023-03-25T08:51:02.366Z,11.24
2023-03-25T08:52:06.533Z,11.27
2023-03-25T08:53:10.892Z,11.31
2023-03-25T08:54:15.075Z,11.34
2023-03-25T08:55:19.366Z,11.35
2023-03-25T08:56:23.637Z,11.38
2023-03-25T08:57:27.874Z,11.40
2023-03-25T08:58:32.228Z,11.42
2023-03-25T08:59:36.441Z,11.42
2023-03-25T09:00:40.704Z,11.42
2023-03-25T09:01:45.048Z,11.43
2023-03-25T09:02:49.247Z,11.44
2023-03-25T09:03:53.467Z,11.45
2023-03-25T09:04:57.855Z,11.48
2023-03-25T09:06:02.039Z,11.52
2023-03-25T09:07:10.878Z,11.55
2023-03-25T09:08:10.687Z,11.58
2023-03-25T09:09:14.948Z,11.62
2023-03-25T09:10:19.248Z,11.66
2023-03-25T09:11:34.184Z,11.69
2023-03-25T09:12:27.774Z,11.73
2023-03-25T09:13:32.068Z,11.76
2023-03-25T09:14:36.316Z,11.77
2023-03-25T09:15:40.584Z,11.79
2023-03-25T09:16:44.868Z,11.81
2023-03-25T09:17:49.123Z,11.82
2023-03-25T09:18:53.392Z,11.83
2023-03-25T09:19:58.898Z,11.84
2023-03-25T09:21:01.926Z,11.85
2023-03-25T09:22:06.194Z,11.85
2023-03-25T09:23:10.535Z,11.84
2023-03-25T09:24:14.890Z,11.84
2023-03-25T09:25:19.139Z,11.84
2023-03-25T09:26:23.458Z,11.85
2023-03-25T09:27:27.822Z,11.85
2023-03-25T09:28:31.997Z,11.84
2023-03-25T09:29:36.289Z,11.85
2023-03-25T09:30:40.536Z,11.86
2023-03-25T09:31:44.888Z,11.86
2023-03-25T09:32:49.100Z,11.87
2023-03-25T09:33:53.353Z,11.88
2023-03-25T09:34:57.638Z,11.90
2023-03-25T09:36:01.963Z,11.91
2023-03-25T09:37:06.212Z,11.92
2023-03-25T09:38:10.479Z,11.92
2023-03-25T09:39:14.715Z,11.90
2023-03-25T09:40:19.032Z,11.88
2023-03-25T09:41:23.290Z,11.87
2023-03-25T09:42:27.492Z,11.85
2023-03-25T09:43:31.756Z,11.83
2023-03-25T09:44:36.040Z,11.82
2023-03-25T09:45:40.317Z,11.80
2023-03-25T09:46:44.595Z,11.77
2023-03-25T09:47:48.933Z,11.77
2023-03-25T09:50:20.285Z,11.76
2023-03-25T09:51:24.477Z,11.76
2023-03-25T09:52:28.802Z,11.76
2023-03-25T09:53:33.041Z,11.76
2023-03-25T09:54:37.282Z,11.76
2023-03-25T09:55:41.665Z,11.76
2023-03-25T09:56:45.981Z,11.76
2023-03-25T09:57:50.158Z,11.75
2023-03-25T09:58:54.447Z,11.75
2023-03-25T09:59:58.681Z,11.76
2023-03-25T10:01:03.181Z,11.77
2023-03-25T10:02:07.310Z,11.80
2023-03-25T10:03:11.607Z,11.84
2023-03-25T10:04:15.846Z,11.87
2023-03-25T10:05:20.191Z,11.91
2023-03-25T10:06:24.532Z,11.96
2023-03-25T10:07:28.752Z,12.03
2023-03-25T10:08:33.007Z,12.11
2023-03-25T10:09:37.296Z,12.19
2023-03-25T10:10:41.712Z,12.29
2023-03-25T10:11:45.898Z,12.38
2023-03-25T10:12:50.293Z,12.50
2023-03-25T10:13:54.540Z,12.61
2023-03-25T10:14:58.839Z,12.71
2023-03-25T10:16:03.176Z,12.79
2023-03-25T10:17:07.365Z,12.85
2023-03-25T10:18:11.660Z,12.91
2023-03-25T10:19:15.897Z,12.97
2023-03-25T10:20:20.213Z,13.02
2023-03-25T10:21:24.478Z,13.09
2023-03-25T10:22:28.774Z,13.14
2023-03-25T10:23:33.041Z,13.20
2023-03-25T10:24:37.388Z,13.25
2023-03-25T10:25:41.889Z,13.29
2023-03-25T10:26:46.198Z,13.30
2023-03-25T10:27:50.573Z,13.28
2023-03-25T10:28:54.908Z,13.25
2023-03-25T10:29:59.126Z,13.23
2023-03-25T10:31:03.433Z,13.20
2023-03-25T10:32:07.728Z,13.18
2023-03-25T10:33:12.083Z,13.18
2023-03-25T10:34:16.360Z,13.18
2023-03-25T10:35:20.741Z,13.19
2023-03-25T10:36:24.989Z,13.21
2023-03-25T10:37:29.369Z,13.26
2023-03-25T10:38:33.590Z,13.31
2023-03-25T10:39:40.893Z,13.34
2023-03-25T10:40:44.273Z,13.38
2023-03-25T10:41:48.570Z,13.41
2023-03-25T10:42:52.917Z,13.45
2023-03-25T10:43:57.171Z,13.49
2023-03-25T10:45:01.430Z,13.51
2023-03-25T10:46:05.888Z,13.52
2023-03-25T10:47:10.109Z,13.51
2023-03-25T10:48:14.410Z,13.50
2023-03-25T10:49:18.664Z,13.50
2023-03-25T10:50:22.859Z,13.49
2023-03-25T10:51:27.270Z,13.48
2023-03-25T10:52:31.524Z,13.50
2023-03-25T10:53:35.817Z,13.50
2023-03-25T10:54:40.188Z,13.49
2023-03-25T10:55:44.426Z,13.49
2023-03-25T10:56:48.748Z,13.50
2023-03-25T10:57:53.022Z,13.50
2023-03-25T10:58:57.303Z,13.51
2023-03-25T11:00:01.763Z,13.52
2023-03-25T11:01:06.055Z,13.55
2023-03-25T11:02:10.269Z,13.58
2023-03-25T11:03:14.608Z,13.58
2023-03-25T11:04:18.926Z,13.56
2023-03-25T11:05:23.134Z,13.53
2023-03-25T11:06:27.346Z,13.52
2023-03-25T11:07:31.586Z,13.50
2023-03-25T11:08:36.029Z,13.50
2023-03-25T11:09:40.231Z,13.50
2023-03-25T11:10:44.515Z,13.51
2023-03-25T11:11:48.779Z,13.51
2023-03-25T11:12:53.088Z,13.50
2023-03-25T11:13:57.261Z,13.48
2023-03-25T11:15:01.712Z,13.48
2023-03-25T11:16:06.060Z,13.46
2023-03-25T11:17:10.836Z,13.44
2023-03-25T11:18:14.865Z,13.41
2023-03-25T11:19:25.060Z,13.38
2023-03-25T11:20:27.755Z,13.33
2023-03-25T11:21:32.100Z,13.30
2023-03-25T11:22:36.381Z,13.26
2023-03-25T11:23:40.635Z,13.24
2023-03-25T11:24:44.906Z,13.22
2023-03-25T11:25:49.416Z,13.21
2023-03-25T11:26:53.417Z,13.22
2023-03-25T11:27:57.692Z,13.23
2023-03-25T11:29:01.994Z,13.26
2023-03-25T11:30:06.318Z,13.27
2023-03-25T11:31:10.754Z,13.29
2023-03-25T11:32:14.931Z,13.31
2023-03-25T11:33:19.185Z,13.37
2023-03-25T11:34:23.668Z,13.43
2023-03-25T11:35:27.743Z,13.48
2023-03-25T11:36:32.139Z,13.50
2023-03-25T11:37:36.381Z,13.50
2023-03-25T11:38:40.746Z,13.48
2023-03-25T11:39:45.007Z,13.45
2023-03-25T11:40:49.286Z,13.43
2023-03-25T11:41:53.580Z,13.40
2023-03-25T11:42:57.847Z,13.37
2023-03-25T11:44:02.160Z,13.34
2023-03-25T11:45:06.444Z,13.30
2023-03-25T11:46:10.839Z,13.29
2023-03-25T11:47:15.064Z,13.26
2023-03-25T11:48:19.333Z,13.24
2023-03-25T11:49:23.677Z,13.21
2023-03-25T11:50:27.923Z,13.17
2023-03-25T11:51:32.200Z,13.12
2023-03-25T11:52:36.546Z,13.03
2023-03-25T11:53:40.809Z,12.84
2023-03-25T11:54:45.059Z,12.54
2023-03-25T11:55:49.549Z,12.25
2023-03-25T11:56:53.650Z,11.96
2023-03-25T11:57:58.908Z,11.68
2023-03-25T11:59:02.816Z,11.43
2023-03-25T12:00:07.040Z,11.26
2023-03-25T12:01:11.335Z,11.11
2023-03-25T12:02:15.562Z,10.98
2023-03-25T12:03:20.764Z,10.89
2023-03-25T12:04:24.024Z,10.83
2023-03-25T12:05:28.313Z,10.77
2023-03-25T12:06:32.575Z,10.71
2023-03-25T12:07:36.803Z,10.67
2023-03-25T12:08:41.027Z,10.61
2023-03-25T12:09:45.278Z,10.56
2023-03-25T12:10:49.536Z,10.51
2023-03-25T12:11:53.786Z,10.46
2023-03-25T12:12:58.003Z,10.42
2023-03-25T12:14:02.360Z,10.39
2023-03-25T12:15:06.539Z,10.34
2023-03-25T12:16:10.798Z,10.29
2023-03-25T12:17:15.038Z,10.23
2023-03-25T12:18:19.369Z,10.18
2023-03-25T12:19:23.691Z,10.15
2023-03-25T12:20:27.889Z,10.14
2023-03-25T12:21:32.120Z,10.15
2023-03-25T12:22:36.386Z,10.15
2023-03-25T12:23:40.613Z,10.16
2023-03-25T12:24:44.908Z,10.16
2023-03-25T12:25:49.349Z,10.16
2023-03-25T12:26:53.369Z,10.17
2023-03-25T12:28:03.794Z,10.17
2023-03-25T12:29:06.706Z,10.19
2023-03-25T12:30:11.054Z,10.21
2023-03-25T12:31:15.280Z,10.23
2023-03-25T12:32:19.460Z,10.26
2023-03-25T12:33:23.659Z,10.28
2023-03-25T12:34:27.852Z,10.31
2023-03-25T12:35:32.008Z,10.33
2023-03-25T12:36:36.306Z,10.33
2023-03-25T12:37:40.731Z,10.35
2023-03-25T12:38:44.878Z,10.35
2023-03-25T12:39:49.059Z,10.35
2023-03-25T12:40:53.665Z,10.36
2023-03-25T12:41:57.748Z,10.37
2023-03-25T12:43:01.941Z,10.40
2023-03-25T12:44:06.201Z,10.44
2023-03-25T12:45:10.460Z,10.49
2023-03-25T12:46:14.798Z,10.56
2023-03-25T12:47:19.024Z,10.61
2023-03-25T12:48:23.275Z,10.66
2023-03-25T12:49:27.593Z,10.69
2023-03-25T12:50:33.113Z,10.74
2023-03-25T12:51:36.032Z,10.77
2023-03-25T12:52:54.274Z,10.81
2023-03-25T12:53:57.531Z,10.93
2023-03-25T12:55:01.685Z,11.04
2023-03-25T12:56:05.921Z,11.11
2023-03-25T12:57:10.282Z,11.21
2023-03-25T12:58:14.418Z,11.31
2023-03-25T12:59:18.659Z,11.39
2023-03-25T13:00:22.914Z,11.51
2023-03-25T13:01:27.243Z,11.71
2023-03-25T13:02:31.499Z,11.93
2023-03-25T13:03:35.730Z,12.15
2023-03-25T13:04:40.085Z,12.34
2023-03-25T13:05:44.382Z,12.51
2023-03-25T13:06:48.706Z,12.65
2023-03-25T13:07:58.931Z,12.76
2023-03-25T13:09:01.822Z,12.89
2023-03-25T13:10:06.091Z,12.99
2023-03-25T13:11:10.399Z,13.07
2023-03-25T13:12:14.637Z,13.10
2023-03-25T13:13:18.953Z,13.09
2023-03-25T13:14:23.225Z,13.04
2023-03-25T13:15:27.979Z,12.97
2023-03-25T13:16:31.919Z,12.91
2023-03-25T13:17:36.115Z,12.85
2023-03-25T13:18:40.385Z,12.79
2023-03-25T13:19:44.665Z,12.72
2023-03-25T13:20:49.168Z,12.66
2023-03-25T13:21:53.223Z,12.59
2023-03-25T13:22:57.514Z,12.54
2023-03-25T13:24:01.814Z,12.47
2023-03-25T13:25:06.118Z,12.41
2023-03-25T13:26:10.353Z,12.40
2023-03-25T13:27:14.647Z,12.38
2023-03-25T13:28:18.900Z,12.35
2023-03-25T13:29:26.163Z,12.32
2023-03-25T13:30:32.150Z,12.29
2023-03-25T13:31:33.884Z,12.28
2023-03-25T13:32:44.138Z,12.25
2023-03-25T13:33:46.993Z,12.20
2023-03-25T13:34:51.213Z,12.18
2023-03-25T13:35:55.541Z,12.16
2023-03-25T13:36:59.860Z,12.13
2023-03-25T13:38:04.057Z,12.11
2023-03-25T13:39:22.403Z,12.09
2023-03-25T13:40:25.409Z,12.06
2023-03-25T13:41:29.636Z,12.04
2023-03-25T13:42:33.877Z,12.03
2023-03-25T13:43:38.110Z,12.03
2023-03-25T13:44:48.420Z,12.03
2023-03-25T13:45:51.329Z,12.02
2023-03-25T13:46:55.556Z,12.00
2023-03-25T13:47:59.831Z,11.98
2023-03-25T13:49:04.187Z,11.95
2023-03-25T13:50:08.386Z,11.93
2023-03-25T13:51:12.695Z,11.91
2023-03-25T13:52:16.923Z,11.90
2023-03-25T13:53:21.307Z,11.90
2023-03-25T13:54:25.533Z,11.90
2023-03-25T13:55:29.777Z,11.92
2023-03-25T13:56:34.183Z,11.92
2023-03-25T13:57:38.392Z,11.94
2023-03-25T13:58:42.654Z,11.97
2023-03-25T13:59:47.019Z,12.01
2023-03-25T14:00:52.825Z,12.03
2023-03-25T14:01:55.613Z,12.05
2023-03-25T14:02:59.922Z,12.05
2023-03-25T14:04:04.117Z,12.05
2023-03-25T14:05:08.419Z,12.05